Time;durP1;ratioP1;P1;durP2;ratioP2;P2;SDS_P1;SDS_P2;PMS_P1;PMS_P2;Temp;Humidity;BMP_temperature;BMP_pressure;BME280_temperature;BME280_humidity;BME280_pressure;Samples;Min_cycle;Max_cycle;Signal;HPM_P1;HPM_P2
2023/08/08 00:00:41;;;;;;;2.50;2.03;;;;;;;;;;5050440;28;20045;-67
2023/08/08 00:03:08;;;;;;;1.95;1.75;;;;;;;;;;5050136;28;20084;-68
2023/08/08 00:05:35;;;;;;;2.30;2.10;;;;;;;;;;5050855;28;20051;-67
2023/08/08 00:08:02;;;;;;;2.40;2.00;;;;;;;;;;5050516;28;20481;-67
2023/08/08 00:10:29;;;;;;;2.47;2.10;;;;;;;;;;5050451;28;20417;-67
2023/08/08 00:12:56;;;;;;;2.45;2.00;;;;;;;;;;5050314;28;20047;-67
2023/08/08 00:15:23;;;;;;;3.25;1.90;;;;;;;;;;5050185;28;20041;-67
2023/08/08 00:17:49;;;;;;;2.53;2.08;;;;;;;;;;5049854;28;20103;-68
2023/08/08 00:20:16;;;;;;;2.80;1.83;;;;;;;;;;5050214;28;20045;-67
2023/08/08 00:22:43;;;;;;;4.60;1.90;;;;;;;;;;5050599;28;20048;-67
2023/08/08 00:25:09;;;;;;;2.17;1.95;;;;;;;;;;5050105;28;20051;-67
2023/08/08 00:27:41;;;;;;;2.13;1.65;;;;;;;;;;5050894;28;20478;-67
2023/08/08 00:30:09;;;;;;;2.13;1.92;;;;;;;;;;5050165;28;20044;-67
2023/08/08 00:32:36;;;;;;;2.38;1.98;;;;;;;;;;5050258;28;20114;-67
2023/08/08 00:35:02;;;;;;;2.75;2.10;;;;;;;;;;5049860;28;20045;-67
2023/08/08 00:37:29;;;;;;;3.55;2.10;;;;;;;;;;5050424;28;20048;-67
2023/08/08 00:39:56;;;;;;;3.03;2.00;;;;;;;;;;5049566;28;20045;-68
2023/08/08 00:42:22;;;;;;;2.92;2.10;;;;;;;;;;5050308;28;20045;-67
2023/08/08 00:44:50;;;;;;;2.72;2.05;;;;;;;;;;5050327;28;20045;-68
2023/08/08 00:47:17;;;;;;;3.55;2.17;;;;;;;;;;5050100;28;20136;-67
2023/08/08 00:49:46;;;;;;;4.50;2.05;;;;;;;;;;5049117;28;20045;-68
2023/08/08 00:52:13;;;;;;;3.17;2.15;;;;;;;;;;5050346;28;20410;-67
2023/08/08 00:54:40;;;;;;;4.00;2.30;;;;;;;;;;5050037;28;20045;-67
2023/08/08 00:57:06;;;;;;;3.30;2.03;;;;;;;;;;5049843;28;20151;-67
2023/08/08 00:59:34;;;;;;;2.35;1.92;;;;;;;;;;5049877;28;20067;-67
2023/08/08 01:02:01;;;;;;;3.22;2.13;;;;;;;;;;5049654;28;20045;-67
2023/08/08 01:04:28;;;;;;;6.03;2.30;;;;;;;;;;5050263;28;20528;-67
2023/08/08 01:07:04;;;;;;;2.42;2.13;;;;;;;;;;5049454;28;20055;-67
2023/08/08 01:09:35;;;;;;;2.90;1.95;;;;;;;;;;5049723;28;20520;-67
2023/08/08 01:12:03;;;;;;;4.18;2.10;;;;;;;;;;5049606;28;20067;-67
2023/08/08 01:14:33;;;;;;;4.53;2.60;;;;;;;;;;5049868;28;20053;-67
2023/08/08 01:17:02;;;;;;;3.90;2.35;;;;;;;;;;5049100;28;20052;-67
2023/08/08 01:19:32;;;;;;;3.70;2.50;;;;;;;;;;5049777;28;20052;-68
2023/08/08 01:22:03;;;;;;;3.22;2.30;;;;;;;;;;5049873;28;20109;-67
2023/08/08 01:24:32;;;;;;;2.20;2.00;;;;;;;;;;5049811;28;20045;-67
2023/08/08 01:27:00;;;;;;;2.20;1.95;;;;;;;;;;5049651;28;20251;-67
2023/08/08 01:29:26;;;;;;;3.40;2.13;;;;;;;;;;5053282;28;20041;-68
2023/08/08 01:31:53;;;;;;;3.00;2.08;;;;;;;;;;5053578;28;20045;-68
2023/08/08 01:34:20;;;;;;;4.32;2.33;;;;;;;;;;5053769;28;20055;-67
2023/08/08 01:36:50;;;;;;;2.58;2.10;;;;;;;;;;5053371;28;20454;-68
2023/08/08 01:39:20;;;;;;;4.72;2.40;;;;;;;;;;5052773;28;20048;-67
2023/08/08 01:41:49;;;;;;;3.20;2.50;;;;;;;;;;5053195;28;20045;-68
2023/08/08 01:44:17;;;;;;;2.55;2.00;;;;;;;;;;5053293;28;20406;-67
2023/08/08 01:46:44;;;;;;;2.90;2.30;;;;;;;;;;5053644;28;20516;-67
2023/08/08 01:49:10;;;;;;;3.92;2.25;;;;;;;;;;5053172;28;20047;-67
2023/08/08 01:51:37;;;;;;;3.28;2.20;;;;;;;;;;5051306;28;20045;-68
2023/08/08 01:54:04;;;;;;;5.30;1.90;;;;;;;;;;5052464;28;20091;-67
2023/08/08 01:56:30;;;;;;;2.50;2.00;;;;;;;;;;5053215;28;20045;-68
2023/08/08 01:58:58;;;;;;;4.65;2.08;;;;;;;;;;5052687;28;20041;-68
2023/08/08 02:01:25;;;;;;;2.45;1.75;;;;;;;;;;5052712;28;20041;-68
2023/08/08 02:03:51;;;;;;;2.25;1.85;;;;;;;;;;5053206;28;20080;-67
2023/08/08 02:06:18;;;;;;;2.50;2.10;;;;;;;;;;5052096;28;20483;-67
2023/08/08 02:08:45;;;;;;;2.78;1.90;;;;;;;;;;5052977;28;20045;-67
2023/08/08 02:11:12;;;;;;;2.38;2.05;;;;;;;;;;5051891;28;20051;-67
2023/08/08 02:13:38;;;;;;;4.25;2.33;;;;;;;;;;5053014;28;20063;-67
2023/08/08 02:16:06;;;;;;;5.28;2.45;;;;;;;;;;5052446;28;20067;-67
2023/08/08 02:18:33;;;;;;;2.55;2.08;;;;;;;;;;5041228;28;20045;-68
2023/08/08 02:20:59;;;;;;;3.22;2.30;;;;;;;;;;5031602;28;20049;-67
2023/08/08 02:23:26;;;;;;;3.83;2.00;;;;;;;;;;5032643;28;20059;-68
2023/08/08 02:25:53;;;;;;;4.90;2.65;;;;;;;;;;5032205;28;20047;-68
2023/08/08 02:28:20;;;;;;;3.95;2.38;;;;;;;;;;5032450;28;20053;-67
2023/08/08 02:30:46;;;;;;;2.55;2.00;;;;;;;;;;5032091;28;20045;-67
2023/08/08 02:33:14;;;;;;;3.10;2.40;;;;;;;;;;5032301;28;20121;-67
2023/08/08 02:35:41;;;;;;;2.97;2.20;;;;;;;;;;5032102;28;20046;-67
2023/08/08 02:38:07;;;;;;;9.50;2.40;;;;;;;;;;5035325;28;20479;-67
2023/08/08 02:40:34;;;;;;;5.85;2.55;;;;;;;;;;5051143;28;20055;-67
2023/08/08 02:43:01;;;;;;;4.18;2.33;;;;;;;;;;5052088;28;20564;-67
2023/08/08 02:45:27;;;;;;;3.83;2.40;;;;;;;;;;5052347;28;20041;-68
2023/08/08 02:47:54;;;;;;;4.28;2.45;;;;;;;;;;5045253;28;20051;-68
2023/08/08 02:50:22;;;;;;;3.55;2.47;;;;;;;;;;5051215;28;20052;-67
2023/08/08 02:52:48;;;;;;;3.72;2.78;;;;;;;;;;5051749;28;20041;-67
2023/08/08 02:55:15;;;;;;;4.90;2.90;;;;;;;;;;5051642;28;20048;-67
2023/08/08 02:57:42;;;;;;;3.38;2.80;;;;;;;;;;5052226;28;20041;-67
2023/08/08 03:00:11;;;;;;;4.25;2.45;;;;;;;;;;5051160;28;20041;-67
2023/08/08 03:02:37;;;;;;;3.42;2.85;;;;;;;;;;5051915;28;20084;-67
2023/08/08 03:05:05;;;;;;;7.32;2.83;;;;;;;;;;5051519;28;20501;-67
2023/08/08 03:07:33;;;;;;;3.47;2.92;;;;;;;;;;5051688;28;20132;-66
2023/08/08 03:10:00;;;;;;;4.57;3.25;;;;;;;;;;5050985;28;20159;-66
2023/08/08 03:12:26;;;;;;;3.33;2.67;;;;;;;;;;5051542;28;20044;-66
2023/08/08 03:14:53;;;;;;;4.78;3.28;;;;;;;;;;5051750;28;20041;-66
2023/08/08 03:17:19;;;;;;;4.03;2.70;;;;;;;;;;5050746;28;20131;-67
2023/08/08 03:19:46;;;;;;;4.22;2.58;;;;;;;;;;5050575;28;20044;-67
2023/08/08 03:22:12;;;;;;;3.40;2.72;;;;;;;;;;5051235;28;20478;-66
2023/08/08 03:24:40;;;;;;;4.60;2.67;;;;;;;;;;5051552;28;20483;-66
2023/08/08 03:27:07;;;;;;;4.03;2.50;;;;;;;;;;5050905;28;20483;-66
2023/08/08 03:29:33;;;;;;;4.72;2.70;;;;;;;;;;5050736;28;20454;-67
2023/08/08 03:32:00;;;;;;;6.63;2.92;;;;;;;;;;5051244;28;20044;-66
2023/08/08 03:34:26;;;;;;;5.00;3.15;;;;;;;;;;5051552;28;20673;-67
2023/08/08 03:36:53;;;;;;;4.78;2.90;;;;;;;;;;5051223;28;20053;-66
2023/08/08 03:39:20;;;;;;;8.48;3.25;;;;;;;;;;5050687;28;20051;-66
2023/08/08 03:41:47;;;;;;;4.93;3.10;;;;;;;;;;5050981;28;20045;-66
2023/08/08 03:44:14;;;;;;;4.70;3.03;;;;;;;;;;5050479;28;20127;-66
2023/08/08 03:46:41;;;;;;;3.90;2.95;;;;;;;;;;5051244;28;20252;-66
2023/08/08 03:49:07;;;;;;;5.05;3.00;;;;;;;;;;5049680;28;20051;-67
2023/08/08 03:51:34;;;;;;;4.93;3.10;;;;;;;;;;5050818;28;20053;-66
2023/08/08 03:54:01;;;;;;;3.97;3.25;;;;;;;;;;5050681;28;20045;-67
2023/08/08 03:56:27;;;;;;;5.15;3.25;;;;;;;;;;5051189;28;20051;-67
2023/08/08 03:58:56;;;;;;;6.20;3.92;;;;;;;;;;5050373;28;20095;-66
2023/08/08 04:01:23;;;;;;;5.70;2.97;;;;;;;;;;5050659;28;20045;-67
2023/08/08 04:03:50;;;;;;;5.03;3.25;;;;;;;;;;5050452;28;20084;-67
2023/08/08 04:06:16;;;;;;;6.82;3.25;;;;;;;;;;5050884;28;20479;-67
2023/08/08 04:08:43;;;;;;;5.35;3.05;;;;;;;;;;5050598;28;20247;-64
2023/08/08 04:11:09;;;;;;;3.92;3.15;;;;;;;;;;5049638;28;20132;-66
2023/08/08 04:13:36;;;;;;;4.65;2.92;;;;;;;;;;5050234;28;20059;-66
2023/08/08 04:16:04;;;;;;;7.47;3.00;;;;;;;;;;5050114;28;20514;-66
2023/08/08 04:18:31;;;;;;;6.28;3.15;;;;;;;;;;5049466;28;20044;-67
2023/08/08 04:20:58;;;;;;;3.85;3.15;;;;;;;;;;5043256;28;20128;-64
2023/08/08 04:23:25;;;;;;;5.78;3.30;;;;;;;;;;5050023;28;20137;-66
2023/08/08 04:25:52;;;;;;;6.10;3.40;;;;;;;;;;5049449;28;20076;-65
2023/08/08 04:28:18;;;;;;;5.72;3.83;;;;;;;;;;5050417;28;20045;-66
2023/08/08 04:30:45;;;;;;;6.75;3.50;;;;;;;;;;5049545;28;20045;-66
2023/08/08 04:33:13;;;;;;;5.38;3.13;;;;;;;;;;5050213;28;20070;-66
2023/08/08 04:35:39;;;;;;;6.53;3.67;;;;;;;;;;5050081;28;20051;-66
2023/08/08 04:38:06;;;;;;;5.20;2.90;;;;;;;;;;5049691;28;20549;-66
2023/08/08 04:40:33;;;;;;;6.32;3.17;;;;;;;;;;5049645;28;20548;-66
2023/08/08 04:42:59;;;;;;;3.67;2.78;;;;;;;;;;5049822;28;20507;-66
2023/08/08 04:45:27;;;;;;;4.55;3.05;;;;;;;;;;5049958;28;20045;-66
2023/08/08 04:47:52;;;;;;;4.78;2.95;;;;;;;;;;5049374;28;20048;-66
2023/08/08 04:50:20;;;;;;;5.70;2.92;;;;;;;;;;5050113;28;20098;-66
2023/08/08 04:52:47;;;;;;;4.97;3.25;;;;;;;;;;5049504;28;20503;-65
2023/08/08 04:55:13;;;;;;;3.63;2.75;;;;;;;;;;5049956;28;20059;-66
2023/08/08 04:57:40;;;;;;;5.47;3.45;;;;;;;;;;5049447;28;20049;-66
2023/08/08 05:00:08;;;;;;;6.10;3.28;;;;;;;;;;5049888;28;20318;-64
2023/08/08 05:02:35;;;;;;;7.20;3.80;;;;;;;;;;5048693;28;20057;-65
2023/08/08 05:05:01;;;;;;;5.22;3.05;;;;;;;;;;5050011;28;20048;-66
2023/08/08 05:07:29;;;;;;;5.40;3.13;;;;;;;;;;5049879;28;20057;-66
2023/08/08 05:09:56;;;;;;;5.82;3.38;;;;;;;;;;5049529;28;20053;-66
2023/08/08 05:12:22;;;;;;;7.10;3.47;;;;;;;;;;5049909;28;20309;-66
2023/08/08 05:14:49;;;;;;;4.88;3.00;;;;;;;;;;5049456;28;20254;-65
2023/08/08 05:17:16;;;;;;;5.88;3.72;;;;;;;;;;5049594;28;20140;-66
2023/08/08 05:19:42;;;;;;;5.90;3.28;;;;;;;;;;5048954;28;20059;-66
2023/08/08 05:22:09;;;;;;;5.85;3.45;;;;;;;;;;5049443;28;20074;-66
2023/08/08 05:24:36;;;;;;;4.72;3.58;;;;;;;;;;5049272;28;20433;-65
2023/08/08 05:27:04;;;;;;;8.40;3.80;;;;;;;;;;5049887;28;20158;-66
2023/08/08 05:29:30;;;;;;;5.32;3.50;;;;;;;;;;5049107;28;20132;-66
2023/08/08 05:31:57;;;;;;;9.13;3.88;;;;;;;;;;5049275;28;20055;-66
2023/08/08 05:34:24;;;;;;;7.90;4.22;;;;;;;;;;5048994;28;20045;-65
2023/08/08 05:36:51;;;;;;;6.45;4.07;;;;;;;;;;5049325;28;20056;-66
2023/08/08 05:39:18;;;;;;;5.97;4.22;;;;;;;;;;5049199;28;20126;-66
2023/08/08 05:41:45;;;;;;;12.10;5.95;;;;;;;;;;5049232;28;20041;-66
2023/08/08 05:44:12;;;;;;;9.18;5.28;;;;;;;;;;5049440;28;20048;-66
2023/08/08 05:46:38;;;;;;;9.65;4.80;;;;;;;;;;5048935;28;20041;-66
2023/08/08 05:49:06;;;;;;;6.60;4.43;;;;;;;;;;5049299;28;20079;-66
2023/08/08 05:51:33;;;;;;;6.80;4.47;;;;;;;;;;5048796;28;20481;-65
2023/08/08 05:53:59;;;;;;;7.50;3.80;;;;;;;;;;5049395;28;20051;-66
2023/08/08 05:56:26;;;;;;;6.90;4.10;;;;;;;;;;5048878;28;20411;-65
2023/08/08 05:58:54;;;;;;;6.72;4.07;;;;;;;;;;5049290;28;20508;-65
2023/08/08 06:01:20;;;;;;;6.63;4.03;;;;;;;;;;5048833;28;20045;-66
2023/08/08 06:03:47;;;;;;;5.68;3.75;;;;;;;;;;5048917;28;20064;-65
2023/08/08 06:06:14;;;;;;;6.72;4.10;;;;;;;;;;5048916;28;20118;-66
2023/08/08 06:08:41;;;;;;;8.10;4.43;;;;;;;;;;5049009;28;20060;-65
2023/08/08 06:11:07;;;;;;;5.45;3.88;;;;;;;;;;5048657;28;20053;-66
2023/08/08 06:13:34;;;;;;;6.43;3.72;;;;;;;;;;5049329;28;20041;-66
2023/08/08 06:16:06;;;;;;;11.05;4.50;;;;;;;;;;5052617;28;20128;-66
2023/08/08 06:18:32;;;;;;;7.22;4.53;;;;;;;;;;5052118;28;20076;-67
2023/08/08 06:20:59;;;;;;;5.43;3.72;;;;;;;;;;5052452;28;20045;-65
2023/08/08 06:23:26;;;;;;;7.57;3.85;;;;;;;;;;5052344;28;20509;-66
2023/08/08 06:25:52;;;;;;;8.15;4.32;;;;;;;;;;5052621;28;20137;-66
2023/08/08 06:28:21;;;;;;;5.00;3.72;;;;;;;;;;5051969;28;20379;-66
2023/08/08 06:30:48;;;;;;;9.60;3.53;;;;;;;;;;5051907;28;20048;-65
2023/08/08 06:33:16;;;;;;;4.28;3.50;;;;;;;;;;5052251;28;20041;-66
2023/08/08 06:35:42;;;;;;;3.97;3.55;;;;;;;;;;5052456;28;20049;-66
2023/08/08 06:38:09;;;;;;;6.57;3.08;;;;;;;;;;5051678;28;20052;-65
2023/08/08 06:40:36;;;;;;;6.35;3.28;;;;;;;;;;5051908;28;20040;-67
2023/08/08 06:43:02;;;;;;;4.60;2.70;;;;;;;;;;5051583;28;20040;-68
2023/08/08 06:45:29;;;;;;;4.07;2.85;;;;;;;;;;5040436;28;20105;-67
2023/08/08 06:47:56;;;;;;;3.78;2.17;;;;;;;;;;5051845;28;20503;-68
2023/08/08 06:50:24;;;;;;;3.92;2.20;;;;;;;;;;5048938;28;20052;-68
2023/08/08 06:52:51;;;;;;;6.35;2.40;;;;;;;;;;5048986;28;20044;-65
2023/08/08 06:55:18;;;;;;;5.18;2.20;;;;;;;;;;5049903;28;20059;-67
2023/08/08 06:57:45;;;;;;;2.95;2.10;;;;;;;;;;5051426;28;20057;-66
2023/08/08 07:00:13;;;;;;;4.53;1.98;;;;;;;;;;5050301;28;20475;-66
2023/08/08 07:02:40;;;;;;;6.00;2.10;;;;;;;;;;5051480;28;20048;-68
2023/08/08 07:05:07;;;;;;;6.47;1.83;;;;;;;;;;5051210;28;20056;-64
2023/08/08 07:07:35;;;;;;;3.55;2.28;;;;;;;;;;5051081;28;20052;-67
2023/08/08 07:10:03;;;;;;;4.47;1.95;;;;;;;;;;5050526;28;20045;-66
2023/08/08 07:12:29;;;;;;;3.05;1.75;;;;;;;;;;5050732;28;20095;-66
2023/08/08 07:14:56;;;;;;;5.20;2.05;;;;;;;;;;5047236;28;20041;-66
2023/08/08 07:17:22;;;;;;;4.93;2.03;;;;;;;;;;5046098;28;20503;-66
2023/08/08 07:19:49;;;;;;;3.33;1.92;;;;;;;;;;5049141;28;20047;-66
2023/08/08 07:22:16;;;;;;;4.72;1.50;;;;;;;;;;5045168;28;20045;-67
2023/08/08 07:24:44;;;;;;;2.85;1.90;;;;;;;;;;5045897;28;20127;-68
2023/08/08 07:27:10;;;;;;;2.55;1.90;;;;;;;;;;5050566;28;20131;-66
2023/08/08 07:29:37;;;;;;;3.35;2.10;;;;;;;;;;5049485;28;20049;-67
2023/08/08 07:32:04;;;;;;;3.50;1.50;;;;;;;;;;5047701;28;20074;-66
2023/08/08 07:34:32;;;;;;;4.43;1.85;;;;;;;;;;5043068;28;20053;-67
2023/08/08 07:36:58;;;;;;;3.35;1.70;;;;;;;;;;5049308;28;20037;-67
2023/08/08 07:39:25;;;;;;;6.15;1.92;;;;;;;;;;5049046;28;20055;-66
2023/08/08 07:41:53;;;;;;;4.45;1.77;;;;;;;;;;5050090;28;20127;-67
2023/08/08 07:44:20;;;;;;;6.15;1.83;;;;;;;;;;5045055;28;20475;-67
2023/08/08 07:46:46;;;;;;;4.45;1.77;;;;;;;;;;5049775;28;20049;-67
2023/08/08 07:49:13;;;;;;;2.67;1.45;;;;;;;;;;5046985;28;20075;-66
2023/08/08 07:51:39;;;;;;;3.95;1.95;;;;;;;;;;5049922;28;20649;-68
2023/08/08 07:54:08;;;;;;;5.70;1.75;;;;;;;;;;5049433;28;20041;-67
2023/08/08 07:56:35;;;;;;;5.63;1.85;;;;;;;;;;5042684;28;20069;-66
2023/08/08 07:59:03;;;;;;;4.70;1.63;;;;;;;;;;5049276;28;20100;-68
2023/08/08 08:01:30;;;;;;;4.05;1.70;;;;;;;;;;5047115;28;20213;-66
2023/08/08 08:03:56;;;;;;;2.35;1.30;;;;;;;;;;5044756;28;20263;-65
2023/08/08 08:06:23;;;;;;;4.65;1.95;;;;;;;;;;5048066;28;20079;-66
2023/08/08 08:08:50;;;;;;;3.90;1.63;;;;;;;;;;5048042;28;20418;-66
2023/08/08 08:11:16;;;;;;;5.05;1.83;;;;;;;;;;5049322;28;20045;-66
2023/08/08 08:13:43;;;;;;;3.72;1.75;;;;;;;;;;5049104;28;20179;-67
2023/08/08 08:16:11;;;;;;;4.75;2.08;;;;;;;;;;5049026;28;20152;-67
2023/08/08 08:18:38;;;;;;;4.97;1.70;;;;;;;;;;5049143;28;20056;-68
2023/08/08 08:21:04;;;;;;;4.53;1.65;;;;;;;;;;5048275;28;20144;-67
2023/08/08 08:23:32;;;;;;;3.08;1.70;;;;;;;;;;5050137;28;20390;-66
2023/08/08 08:25:58;;;;;;;6.20;1.80;;;;;;;;;;5037965;28;20487;-67
2023/08/08 08:28:26;;;;;;;3.05;1.90;;;;;;;;;;5046181;28;20045;-66
2023/08/08 08:30:53;;;;;;;3.20;1.80;;;;;;;;;;5048487;28;20045;-64
2023/08/08 08:33:21;;;;;;;4.78;1.65;;;;;;;;;;5048668;28;20052;-66
2023/08/08 08:35:47;;;;;;;4.32;1.60;;;;;;;;;;5048749;28;20048;-66
2023/08/08 08:38:14;;;;;;;5.95;2.10;;;;;;;;;;5047424;28;20050;-66
2023/08/08 08:40:44;;;;;;;4.38;1.55;;;;;;;;;;5036311;28;20507;-65
2023/08/08 08:43:11;;;;;;;3.70;1.50;;;;;;;;;;5034663;28;20518;-66
2023/08/08 08:45:39;;;;;;;6.63;2.03;;;;;;;;;;5048527;28;20060;-66
2023/08/08 08:48:09;;;;;;;4.35;1.60;;;;;;;;;;5038230;28;20502;-66
2023/08/08 08:50:39;;;;;;;4.25;1.65;;;;;;;;;;5041038;28;20132;-67
2023/08/08 08:53:06;;;;;;;2.47;1.58;;;;;;;;;;5048180;28;20534;-66
2023/08/08 08:55:33;;;;;;;4.57;1.48;;;;;;;;;;5047820;28;20072;-65
2023/08/08 08:58:00;;;;;;;4.30;1.52;;;;;;;;;;5048798;28;20041;-64
2023/08/08 09:00:27;;;;;;;3.33;1.80;;;;;;;;;;5046981;28;20045;-67
2023/08/08 09:02:55;;;;;;;7.13;1.75;;;;;;;;;;5046470;28;20052;-66
2023/08/08 09:05:22;;;;;;;2.97;1.30;;;;;;;;;;5048030;28;20052;-67
2023/08/08 09:07:51;;;;;;;2.90;1.60;;;;;;;;;;5047866;28;20055;-66
2023/08/08 09:10:19;;;;;;;6.95;1.98;;;;;;;;;;5048342;28;20053;-65
2023/08/08 09:12:46;;;;;;;4.38;1.50;;;;;;;;;;5047562;28;20045;-65
2023/08/08 09:15:13;;;;;;;5.53;1.48;;;;;;;;;;5041851;28;20079;-65
2023/08/08 09:17:42;;;;;;;2.33;1.45;;;;;;;;;;5042701;28;20124;-66
2023/08/08 09:20:10;;;;;;;3.53;1.42;;;;;;;;;;5044441;28;20064;-64
2023/08/08 09:22:37;;;;;;;4.43;1.30;;;;;;;;;;5028961;28;20045;-65
2023/08/08 09:25:07;;;;;;;4.18;1.95;;;;;;;;;;5044673;28;20045;-67
2023/08/08 09:27:35;;;;;;;5.47;1.80;;;;;;;;;;5047789;28;20053;-66
2023/08/08 09:30:02;;;;;;;3.75;1.40;;;;;;;;;;5044767;28;20049;-66
2023/08/08 09:32:30;;;;;;;2.95;1.25;;;;;;;;;;5048589;28;20143;-65
2023/08/08 09:34:57;;;;;;;1.95;1.17;;;;;;;;;;5047603;28;20049;-67
2023/08/08 09:37:24;;;;;;;2.85;1.35;;;;;;;;;;5046881;28;20059;-68
2023/08/08 09:39:57;;;;;;;3.75;1.58;;;;;;;;;;5047410;28;20045;-68
2023/08/08 09:42:27;;;;;;;2.58;1.20;;;;;;;;;;5047885;28;20051;-67
2023/08/08 09:44:54;;;;;;;2.15;1.38;;;;;;;;;;5048126;28;20048;-67
2023/08/08 09:47:22;;;;;;;3.15;1.67;;;;;;;;;;5047917;28;20267;-67
2023/08/08 09:49:49;;;;;;;1.20;1.10;;;;;;;;;;5047897;28;20060;-67
2023/08/08 09:52:16;;;;;;;4.13;1.40;;;;;;;;;;5050928;28;20533;-65
2023/08/08 09:54:43;;;;;;;4.78;1.50;;;;;;;;;;5037670;28;20406;-65
2023/08/08 09:57:10;;;;;;;2.72;1.10;;;;;;;;;;5047035;28;20040;-64
2023/08/08 09:59:38;;;;;;;2.78;1.30;;;;;;;;;;5051858;28;20157;-64
2023/08/08 10:02:06;;;;;;;3.38;1.50;;;;;;;;;;5050090;28;20045;-65
2023/08/08 10:04:34;;;;;;;3.70;1.10;;;;;;;;;;5040709;28;20041;-64
2023/08/08 10:07:00;;;;;;;3.88;1.42;;;;;;;;;;5040012;28;20354;-64
2023/08/08 10:09:27;;;;;;;3.05;1.70;;;;;;;;;;5051304;28;20056;-65
2023/08/08 10:11:57;;;;;;;2.83;1.45;;;;;;;;;;5050341;28;20048;-67
2023/08/08 10:14:30;;;;;;;2.65;1.25;;;;;;;;;;5048946;28;20576;-66
2023/08/08 10:16:58;;;;;;;3.13;1.10;;;;;;;;;;5048228;28;20045;-66
2023/08/08 10:19:25;;;;;;;2.25;1.10;;;;;;;;;;5041156;28;20059;-66
2023/08/08 10:21:57;;;;;;;2.35;1.15;;;;;;;;;;5049500;28;20044;-66
2023/08/08 10:24:24;;;;;;;2.17;1.13;;;;;;;;;;5050556;28;20124;-66
2023/08/08 10:26:54;;;;;;;3.50;1.20;;;;;;;;;;5049894;28;20047;-66
2023/08/08 10:29:21;;;;;;;1.88;1.20;;;;;;;;;;5051040;28;20041;-66
2023/08/08 10:31:55;;;;;;;4.13;1.42;;;;;;;;;;5047476;28;20052;-66
2023/08/08 10:34:36;;;;;;;2.95;1.40;;;;;;;;;;5051867;28;20418;-66
2023/08/08 10:37:05;;;;;;;2.35;0.88;;;;;;;;;;5050773;28;20559;-66
2023/08/08 10:39:32;;;;;;;3.28;1.13;;;;;;;;;;5048388;28;20041;-66
2023/08/08 10:42:03;;;;;;;2.60;1.10;;;;;;;;;;5046510;28;20128;-66
2023/08/08 10:44:30;;;;;;;2.97;1.10;;;;;;;;;;5052041;28;20044;-66
2023/08/08 10:46:57;;;;;;;3.05;1.15;;;;;;;;;;5050964;28;20709;-66
2023/08/08 10:49:25;;;;;;;2.83;1.10;;;;;;;;;;5051575;28;20479;-67
2023/08/08 10:51:52;;;;;;;2.72;1.35;;;;;;;;;;5050520;28;20045;-66
2023/08/08 10:54:22;;;;;;;3.40;1.08;;;;;;;;;;5052019;28;20103;-66
2023/08/08 10:56:50;;;;;;;1.50;0.80;;;;;;;;;;5051356;28;20049;-66
2023/08/08 10:59:18;;;;;;;3.45;1.05;;;;;;;;;;5043320;28;20041;-67
2023/08/08 11:01:49;;;;;;;2.65;1.23;;;;;;;;;;5046355;28;20041;-67
2023/08/08 11:04:17;;;;;;;3.40;1.00;;;;;;;;;;5050524;28;20045;-66
2023/08/08 11:06:45;;;;;;;3.03;1.15;;;;;;;;;;5031663;28;20475;-66
2023/08/08 11:09:11;;;;;;;1.75;0.90;;;;;;;;;;5031034;28;20045;-66
2023/08/08 11:11:39;;;;;;;3.85;1.10;;;;;;;;;;5031576;28;20050;-66
2023/08/08 11:14:13;;;;;;;1.30;1.10;;;;;;;;;;5031821;28;20049;-66
2023/08/08 11:16:39;;;;;;;3.25;1.20;;;;;;;;;;5031915;28;20075;-67
2023/08/08 11:19:06;;;;;;;2.33;1.10;;;;;;;;;;5031327;28;20045;-69
2023/08/08 11:21:37;;;;;;;2.90;1.00;;;;;;;;;;5031154;28;20053;-67
2023/08/08 11:24:07;;;;;;;4.25;1.00;;;;;;;;;;5031250;28;20530;-67
2023/08/08 11:26:34;;;;;;;2.72;0.90;;;;;;;;;;5031372;28;20129;-67
2023/08/08 11:29:01;;;;;;;3.28;1.10;;;;;;;;;;5031480;28;20513;-67
2023/08/08 11:31:29;;;;;;;2.80;1.10;;;;;;;;;;5031183;28;20137;-67
2023/08/08 11:33:57;;;;;;;1.58;0.98;;;;;;;;;;5033136;28;20136;-67
2023/08/08 11:36:24;;;;;;;2.05;1.00;;;;;;;;;;5032614;28;20132;-67
2023/08/08 11:38:51;;;;;;;1.63;1.00;;;;;;;;;;5032779;28;20132;-67
2023/08/08 11:41:23;;;;;;;3.35;0.98;;;;;;;;;;5031674;28;20049;-67
2023/08/08 11:43:51;;;;;;;3.20;1.05;;;;;;;;;;5032900;28;20091;-67
2023/08/08 11:46:18;;;;;;;2.65;0.95;;;;;;;;;;5032302;28;20491;-67
2023/08/08 11:48:48;;;;;;;1.60;0.80;;;;;;;;;;5032476;28;20042;-67
2023/08/08 11:51:16;;;;;;;2.63;0.98;;;;;;;;;;5031771;28;20049;-67
2023/08/08 11:53:49;;;;;;;2.85;1.20;;;;;;;;;;5032377;28;20136;-67
2023/08/08 11:56:16;;;;;;;2.30;0.98;;;;;;;;;;5031982;28;20140;-69
2023/08/08 11:58:44;;;;;;;2.05;1.10;;;;;;;;;;5031737;28;20041;-70
2023/08/08 12:01:13;;;;;;;3.20;1.25;;;;;;;;;;5031306;28;20506;-67
2023/08/08 12:03:40;;;;;;;1.55;1.00;;;;;;;;;;5032067;28;20049;-68
2023/08/08 12:06:12;;;;;;;2.38;0.98;;;;;;;;;;5031374;28;20045;-69
2023/08/08 12:08:41;;;;;;;3.67;1.17;;;;;;;;;;5031209;28;20057;-69
2023/08/08 12:11:09;;;;;;;3.83;1.13;;;;;;;;;;5030825;28;20140;-69
2023/08/08 12:13:39;;;;;;;3.15;1.17;;;;;;;;;;5031490;28;20555;-69
2023/08/08 12:16:07;;;;;;;3.10;1.23;;;;;;;;;;5031417;28;20144;-69
2023/08/08 12:18:34;;;;;;;2.88;1.45;;;;;;;;;;5030687;28;20052;-69
2023/08/08 12:21:02;;;;;;;5.80;1.08;;;;;;;;;;5030597;28;20133;-68
2023/08/08 12:23:28;;;;;;;3.17;1.00;;;;;;;;;;5030587;28;20062;-69
2023/08/08 12:25:55;;;;;;;2.20;1.00;;;;;;;;;;5030653;28;20048;-69
2023/08/08 12:28:22;;;;;;;1.92;1.17;;;;;;;;;;5030086;28;20625;-69
2023/08/08 12:30:48;;;;;;;4.28;1.17;;;;;;;;;;5029846;28;20049;-69
2023/08/08 12:33:16;;;;;;;3.03;1.10;;;;;;;;;;5029798;28;20046;-69
2023/08/08 12:35:43;;;;;;;3.92;1.40;;;;;;;;;;5030044;28;20045;-68
2023/08/08 12:38:10;;;;;;;3.40;1.23;;;;;;;;;;5030017;28;20048;-69
2023/08/08 12:40:37;;;;;;;2.42;1.10;;;;;;;;;;5029801;28;20557;-69
2023/08/08 12:43:03;;;;;;;3.00;1.23;;;;;;;;;;5030326;28;20172;-69
2023/08/08 12:45:30;;;;;;;1.65;1.23;;;;;;;;;;5030064;28;20372;-68
2023/08/08 12:47:57;;;;;;;4.15;1.20;;;;;;;;;;5029863;28;20499;-68
2023/08/08 12:50:25;;;;;;;3.55;1.50;;;;;;;;;;5030061;28;20076;-68
2023/08/08 12:52:51;;;;;;;2.35;1.40;;;;;;;;;;5030183;28;20045;-68
2023/08/08 12:55:19;;;;;;;3.13;1.15;;;;;;;;;;5029954;28;20046;-68
2023/08/08 12:57:46;;;;;;;3.05;1.10;;;;;;;;;;5029959;28;20041;-68
2023/08/08 13:00:14;;;;;;;3.58;1.20;;;;;;;;;;5029044;28;20055;-68
2023/08/08 13:02:41;;;;;;;1.55;1.10;;;;;;;;;;5029658;28;20053;-69
2023/08/08 13:05:09;;;;;;;2.33;1.20;;;;;;;;;;5029850;28;20451;-69
2023/08/08 13:07:37;;;;;;;3.65;1.33;;;;;;;;;;5030075;28;20049;-69
2023/08/08 13:10:04;;;;;;;2.58;1.15;;;;;;;;;;5029050;28;20056;-69
2023/08/08 13:12:31;;;;;;;2.55;1.45;;;;;;;;;;5029711;28;20052;-69
2023/08/08 13:14:58;;;;;;;2.70;1.25;;;;;;;;;;5029200;28;20045;-68
2023/08/08 13:17:24;;;;;;;2.35;1.10;;;;;;;;;;5029917;28;20407;-69
2023/08/08 13:19:51;;;;;;;2.92;1.02;;;;;;;;;;5029088;28;20046;-69
2023/08/08 13:22:17;;;;;;;2.25;1.00;;;;;;;;;;5029868;28;20052;-69
2023/08/08 13:24:45;;;;;;;2.53;1.27;;;;;;;;;;5032610;28;20049;-69
2023/08/08 13:27:12;;;;;;;3.15;1.10;;;;;;;;;;5033436;28;20053;-69
2023/08/08 13:29:38;;;;;;;4.13;1.30;;;;;;;;;;5032899;28;20536;-68
2023/08/08 13:32:05;;;;;;;1.42;1.20;;;;;;;;;;5033498;28;20506;-69
2023/08/08 13:34:32;;;;;;;2.10;1.40;;;;;;;;;;5033758;28;20415;-69
2023/08/08 13:36:58;;;;;;;2.97;1.42;;;;;;;;;;5033218;28;20041;-69
2023/08/08 13:39:25;;;;;;;2.88;1.30;;;;;;;;;;5033571;28;20052;-69
2023/08/08 13:41:53;;;;;;;3.30;1.58;;;;;;;;;;5032775;28;20050;-69
2023/08/08 13:44:19;;;;;;;2.13;1.27;;;;;;;;;;5033133;28;20045;-69
2023/08/08 13:46:46;;;;;;;2.15;1.15;;;;;;;;;;5033087;28;20056;-69
2023/08/08 13:49:12;;;;;;;2.05;1.08;;;;;;;;;;5033633;28;20045;-68
2023/08/08 13:51:39;;;;;;;3.20;1.42;;;;;;;;;;5032671;28;20151;-68
2023/08/08 13:54:05;;;;;;;6.90;1.55;;;;;;;;;;5034060;28;20134;-68
2023/08/08 13:56:32;;;;;;;2.38;1.10;;;;;;;;;;5033143;28;20571;-69
2023/08/08 13:59:00;;;;;;;3.33;1.50;;;;;;;;;;5032800;28;20056;-69
2023/08/08 14:01:27;;;;;;;3.42;1.35;;;;;;;;;;5032504;28;20495;-69
2023/08/08 14:03:53;;;;;;;6.75;1.35;;;;;;;;;;5032726;28;20491;-69
2023/08/08 14:06:20;;;;;;;4.82;1.50;;;;;;;;;;5033381;28;20071;-68
2023/08/08 14:08:46;;;;;;;1.92;1.42;;;;;;;;;;5032114;28;20132;-69
2023/08/08 14:11:13;;;;;;;3.65;1.42;;;;;;;;;;5032345;28;20068;-69
2023/08/08 14:13:40;;;;;;;3.50;1.20;;;;;;;;;;5032754;28;20050;-68
2023/08/08 14:16:08;;;;;;;3.15;1.90;;;;;;;;;;5032977;28;20041;-69
2023/08/08 14:18:35;;;;;;;5.93;1.70;;;;;;;;;;5032211;28;20045;-69
2023/08/08 14:21:02;;;;;;;3.13;1.60;;;;;;;;;;5032255;28;20419;-69
2023/08/08 14:23:29;;;;;;;2.25;1.30;;;;;;;;;;5032379;28;20096;-68
2023/08/08 14:25:56;;;;;;;3.45;1.50;;;;;;;;;;5032433;28;20041;-69
2023/08/08 14:28:22;;;;;;;3.90;1.20;;;;;;;;;;5032058;28;20064;-69
2023/08/08 14:30:49;;;;;;;4.65;1.40;;;;;;;;;;5032361;28;20332;-69
2023/08/08 14:33:17;;;;;;;2.25;1.30;;;;;;;;;;5032126;28;20045;-69
2023/08/08 14:35:44;;;;;;;2.97;1.40;;;;;;;;;;5031197;28;20045;-69
2023/08/08 14:38:10;;;;;;;3.45;1.58;;;;;;;;;;5032314;28;20052;-69
2023/08/08 14:40:37;;;;;;;2.80;1.60;;;;;;;;;;5031603;28;20128;-69
2023/08/08 14:43:09;;;;;;;2.78;1.20;;;;;;;;;;5032389;28;20049;-69